createdAt,value
2019-02-07T00:02:25.085Z,8.74
2019-02-07T00:04:56.352Z,8.90
2019-02-07T00:07:27.097Z,8.54
2019-02-07T00:09:58.819Z,8.62
2019-02-07T00:12:29.710Z,8.59
2019-02-07T00:15:00.595Z,8.69
2019-02-07T00:17:32.093Z,8.55
2019-02-07T00:20:03.543Z,8.59
2019-02-07T00:22:34.445Z,8.78
2019-02-07T00:25:05.973Z,8.70
2019-02-07T00:27:37.372Z,8.46
2019-02-07T00:30:10.373Z,8.54
2019-02-07T00:32:41.051Z,8.54
2019-02-07T00:35:12.495Z,8.35
2019-02-07T00:37:44.002Z,8.55
2019-02-07T00:40:15.857Z,8.49
2019-02-07T00:42:46.917Z,8.59
2019-02-07T00:45:18.813Z,8.16
2019-02-07T00:47:49.869Z,8.29
2019-02-07T00:50:20.917Z,7.62
2019-02-07T00:52:52.106Z,7.45
2019-02-07T00:55:24.027Z,7.50
2019-02-07T00:57:54.455Z,7.45
2019-02-07T01:00:26.097Z,7.44
2019-02-07T01:02:57.484Z,7.35
2019-02-07T01:05:28.757Z,7.66
2019-02-07T01:07:59.722Z,7.97
2019-02-07T01:10:30.929Z,8.13
2019-02-07T01:13:02.256Z,8.05
2019-02-07T01:15:33.585Z,7.90
2019-02-07T01:18:04.408Z,7.58
2019-02-07T01:20:35.155Z,7.42
2019-02-07T01:23:06.424Z,7.84
2019-02-07T01:25:37.964Z,7.98
2019-02-07T01:28:08.581Z,7.76
2019-02-07T01:30:39.811Z,7.34
2019-02-07T01:33:10.859Z,7.74
2019-02-07T01:35:41.492Z,7.15
2019-02-07T01:38:12.662Z,7.48
2019-02-07T01:40:44.303Z,7.74
2019-02-07T01:43:15.021Z,8.07
2019-02-07T01:45:46.057Z,7.76
2019-02-07T01:48:17.723Z,7.32
2019-02-07T01:50:48.563Z,7.71
2019-02-07T01:53:19.273Z,7.06
2019-02-07T01:55:49.921Z,7.36
2019-02-07T01:58:21.372Z,7.66
2019-02-07T02:00:52.610Z,7.42
2019-02-07T02:03:23.956Z,7.44
2019-02-07T02:05:54.591Z,7.60
2019-02-07T02:08:25.765Z,7.91
2019-02-07T02:10:57.680Z,8.19
2019-02-07T02:13:28.481Z,7.66
2019-02-07T02:15:59.172Z,7.24
2019-02-07T02:18:31.062Z,7.57
2019-02-07T02:21:02.161Z,7.87
2019-02-07T02:23:32.980Z,7.72
2019-02-07T02:26:03.630Z,7.76
2019-02-07T02:28:34.996Z,7.77
2019-02-07T02:31:06.012Z,8.02
2019-02-07T02:33:36.746Z,7.55
2019-02-07T02:36:07.685Z,7.73
2019-02-07T02:38:38.966Z,7.98
2019-02-07T02:41:10.838Z,7.51
2019-02-07T02:43:41.943Z,7.31
2019-02-07T02:46:12.879Z,7.08
2019-02-07T02:48:44.133Z,7.66
2019-02-07T02:51:14.754Z,7.89
2019-02-07T02:53:46.312Z,7.90
2019-02-07T02:56:17.343Z,7.60
2019-02-07T02:58:47.876Z,7.69
2019-02-07T03:01:35.170Z,7.45
2019-02-07T03:04:32.117Z,7.91
2019-02-07T03:07:20.978Z,8.27
2019-02-07T03:10:10.960Z,8.01
2019-02-07T03:12:56.952Z,7.82
2019-02-07T03:15:50.221Z,8.23
2019-02-07T03:18:46.545Z,8.05
2019-02-07T03:21:39.909Z,8.28
2019-02-07T03:24:35.530Z,8.17
2019-02-07T03:27:42.926Z,8.20
2019-02-07T03:30:33.926Z,8.17
2019-02-07T03:33:26.475Z,7.92
2019-02-07T03:36:05.094Z,7.90
2019-02-07T03:38:54.974Z,7.75
2019-02-07T03:41:34.016Z,7.71
2019-02-07T03:44:24.410Z,7.69
2019-02-07T03:47:23.800Z,7.71
2019-02-07T03:50:05.593Z,7.44
2019-02-07T03:52:58.034Z,7.05
2019-02-07T03:55:48.329Z,7.52
2019-02-07T03:58:41.078Z,7.23
2019-02-07T04:01:32.701Z,7.69
2019-02-07T04:04:24.422Z,7.43
2019-02-07T04:07:11.339Z,7.62
2019-02-07T04:10:14.123Z,7.74
2019-02-07T04:13:09.739Z,7.40
2019-02-07T04:16:18.155Z,7.60
2019-02-07T04:19:26.372Z,7.47
2019-02-07T04:22:30.896Z,6.84
2019-02-07T04:25:33.486Z,6.70
2019-02-07T04:28:29.087Z,6.91
2019-02-07T04:31:18.665Z,6.63
2019-02-07T04:34:06.808Z,7.05
2019-02-07T04:36:51.877Z,6.96
2019-02-07T04:39:45.444Z,7.10
2019-02-07T04:42:41.470Z,6.92
2019-02-07T04:45:29.918Z,7.02
2019-02-07T04:48:22.872Z,7.19
2019-02-07T04:51:28.124Z,7.27
2019-02-07T04:54:16.562Z,6.70
2019-02-07T04:57:21.094Z,7.09
2019-02-07T05:00:20.086Z,6.93
2019-02-07T05:03:22.252Z,6.99
2019-02-07T05:06:12.034Z,7.08
2019-02-07T05:09:17.377Z,7.20
2019-02-07T05:12:21.908Z,7.12
2019-02-07T05:15:12.092Z,7.42
2019-02-07T05:17:56.458Z,7.36
2019-02-07T05:20:49.531Z,7.26
2019-02-07T05:23:51.469Z,7.28
2019-02-07T05:26:46.058Z,7.26
2019-02-07T05:29:28.977Z,7.02
2019-02-07T05:32:15.686Z,6.89
2019-02-07T05:35:23.901Z,7.12
2019-02-07T05:38:07.029Z,7.15
2019-02-07T05:41:06.531Z,7.33
2019-02-07T05:43:48.098Z,7.33
2019-02-07T05:46:51.136Z,7.24
2019-02-07T05:49:35.568Z,7.08
2019-02-07T05:52:41.008Z,7.52
2019-02-07T05:55:42.667Z,7.17
2019-02-07T05:58:38.898Z,7.18
2019-02-07T06:01:29.088Z,7.46
2019-02-07T06:04:18.050Z,7.61
2019-02-07T06:07:10.609Z,7.46
2019-02-07T06:09:59.762Z,7.44
2019-02-07T06:12:56.194Z,7.30
2019-02-07T06:15:48.737Z,7.56
2019-02-07T06:18:44.793Z,7.15
2019-02-07T06:21:34.750Z,7.19
2019-02-07T06:24:16.450Z,7.18
2019-02-07T06:27:06.021Z,6.94
2019-02-07T06:30:05.527Z,7.15
2019-02-07T06:32:52.443Z,7.49
2019-02-07T06:35:55.124Z,7.62
2019-02-07T06:38:44.897Z,7.50
2019-02-07T06:41:33.449Z,7.96
2019-02-07T06:44:17.801Z,8.50
2019-02-07T06:47:22.943Z,9.02
2019-02-07T06:50:22.145Z,9.51
2019-02-07T06:53:11.370Z,10.53
2019-02-07T06:55:59.759Z,10.77
2019-02-07T06:58:57.218Z,11.07
2019-02-07T07:01:44.852Z,11.26
2019-02-07T07:04:51.972Z,11.84
2019-02-07T07:07:38.006Z,12.20
2019-02-07T07:10:20.514Z,12.05
2019-02-07T07:13:08.263Z,13.10
2019-02-07T07:15:57.413Z,13.14
2019-02-07T07:19:04.672Z,13.53
2019-02-07T07:22:02.810Z,13.08
2019-02-07T07:24:50.547Z,13.36
2019-02-07T07:27:38.035Z,14.50
2019-02-07T07:30:30.366Z,15.34
2019-02-07T07:33:14.740Z,15.15
2019-02-07T07:36:16.347Z,14.26
2019-02-07T07:38:55.212Z,14.59
2019-02-07T07:41:35.077Z,16.03
2019-02-07T07:44:20.027Z,16.64
2019-02-07T07:47:07.471Z,16.82
2019-02-07T07:49:59.334Z,17.17
2019-02-07T07:52:54.227Z,16.91
2019-02-07T07:55:34.211Z,16.77
2019-02-07T07:58:29.193Z,16.81
2019-02-07T08:01:18.213Z,16.80
2019-02-07T08:03:57.399Z,15.91
2019-02-07T08:06:49.719Z,17.39
2019-02-07T08:09:51.073Z,17.53
2019-02-07T08:12:38.242Z,16.35
2019-02-07T08:15:23.334Z,16.94
2019-02-07T08:18:12.446Z,17.27
2019-02-07T08:21:00.320Z,17.67
2019-02-07T08:23:44.519Z,17.49
2019-02-07T08:26:32.442Z,17.24
2019-02-07T08:29:19.937Z,18.08
2019-02-07T08:32:00.492Z,17.55
2019-02-07T08:34:47.964Z,18.46
2019-02-07T08:37:35.476Z,18.94
2019-02-07T08:40:44.456Z,18.30
2019-02-07T08:43:33.500Z,19.24
2019-02-07T08:46:21.666Z,18.95
2019-02-07T08:49:09.291Z,18.98
2019-02-07T08:52:14.009Z,19.58
2019-02-07T08:55:03.031Z,18.94
2019-02-07T08:58:01.570Z,18.67
2019-02-07T09:00:46.200Z,17.37
2019-02-07T09:03:34.352Z,17.18
2019-02-07T09:06:26.563Z,19.09
2019-02-07T09:09:18.534Z,18.88
2019-02-07T09:12:06.274Z,19.34
2019-02-07T09:15:04.761Z,19.26
2019-02-07T09:17:42.762Z,18.19
2019-02-07T09:20:38.860Z,16.58
2019-02-07T09:23:22.728Z,17.03
2019-02-07T09:26:10.347Z,17.56
2019-02-07T09:29:11.693Z,18.27
2019-02-07T09:31:59.503Z,17.68
2019-02-07T09:34:48.645Z,19.32
2019-02-07T09:37:28.044Z,20.32
2019-02-07T09:40:17.692Z,19.45
2019-02-07T09:43:00.128Z,19.81
2019-02-07T09:45:52.092Z,19.12
2019-02-07T09:48:40.331Z,18.66
2019-02-07T09:51:29.344Z,19.05
2019-02-07T09:54:24.228Z,18.97
2019-02-07T09:57:31.610Z,19.21
2019-02-07T10:00:09.320Z,19.24
2019-02-07T10:02:58.350Z,18.15
2019-02-07T10:05:44.522Z,16.22
2019-02-07T10:08:32.419Z,17.62
2019-02-07T10:11:27.539Z,19.15
2019-02-07T10:14:15.222Z,20.03
2019-02-07T10:17:04.040Z,19.24
2019-02-07T10:19:50.233Z,19.40
2019-02-07T10:22:45.677Z,20.58
2019-02-07T10:25:40.957Z,21.02
2019-02-07T10:28:30.449Z,20.36
2019-02-07T10:31:22.536Z,19.09
2019-02-07T10:34:23.650Z,18.47
2019-02-07T10:37:07.343Z,18.96
2019-02-07T10:39:55.107Z,19.73
2019-02-07T10:42:47.367Z,18.99
2019-02-07T10:45:36.341Z,21.06
2019-02-07T10:48:25.591Z,21.77
2019-02-07T10:51:04.064Z,20.14
2019-02-07T10:53:40.837Z,19.84
2019-02-07T10:56:35.975Z,17.80
2019-02-07T10:59:27.469Z,17.78
2019-02-07T11:02:25.530Z,17.39
2019-02-07T11:05:27.094Z,16.78
2019-02-07T11:08:14.924Z,17.14
2019-02-07T11:11:08.790Z,17.28
2019-02-07T11:14:03.930Z,17.56
2019-02-07T11:17:03.853Z,16.27
2019-02-07T11:19:49.712Z,15.66
2019-02-07T11:22:35.593Z,15.46
2019-02-07T11:25:26.515Z,14.93
2019-02-07T11:28:16.200Z,14.69
2019-02-07T11:31:12.133Z,15.49
2019-02-07T11:34:04.253Z,15.21
2019-02-07T11:36:54.451Z,15.10
2019-02-07T11:39:58.854Z,14.99
2019-02-07T11:42:47.896Z,14.80
2019-02-07T11:45:27.041Z,14.47
2019-02-07T11:48:31.164Z,14.00
2019-02-07T11:51:27.756Z,13.68
2019-02-07T11:54:15.202Z,13.29
2019-02-07T11:57:04.305Z,13.00
2019-02-07T11:59:53.454Z,13.07
2019-02-07T12:02:41.434Z,13.60
2019-02-07T12:05:30.762Z,13.09
2019-02-07T12:08:33.324Z,13.15
2019-02-07T12:11:26.731Z,13.45
2019-02-07T12:14:27.778Z,14.07
2019-02-07T12:17:12.540Z,13.90
2019-02-07T12:20:00.414Z,13.17
2019-02-07T12:22:54.609Z,12.86
2019-02-07T12:25:39.566Z,13.29
2019-02-07T12:28:17.002Z,13.55
2019-02-07T12:31:11.879Z,13.23
2019-02-07T12:34:03.696Z,13.30
2019-02-07T12:36:51.564Z,12.87
2019-02-07T12:39:52.984Z,11.98
2019-02-07T12:42:45.250Z,12.00
2019-02-07T12:45:40.590Z,11.76
2019-02-07T12:48:28.578Z,11.84
2019-02-07T12:51:16.317Z,12.12
2019-02-07T12:54:08.503Z,11.91
2019-02-07T12:56:56.039Z,11.30
2019-02-07T12:59:34.892Z,11.25
2019-02-07T13:02:40.063Z,11.74
2019-02-07T13:05:33.157Z,11.43
2019-02-07T13:08:22.236Z,11.29
2019-02-07T13:11:10.084Z,11.21
2019-02-07T13:14:01.919Z,11.13
2019-02-07T13:17:00.474Z,11.65
2019-02-07T13:19:40.498Z,11.40
2019-02-07T13:22:27.212Z,10.72
2019-02-07T13:25:23.729Z,11.04
2019-02-07T13:28:18.201Z,10.44
2019-02-07T13:31:06.055Z,10.12
2019-02-07T13:33:43.408Z,10.13
2019-02-07T13:36:38.979Z,10.40
2019-02-07T13:39:27.339Z,10.51
2019-02-07T13:42:09.680Z,9.93
2019-02-07T13:45:09.204Z,10.36
2019-02-07T13:48:04.099Z,10.24
2019-02-07T13:50:56.040Z,10.51
2019-02-07T13:53:42.881Z,10.13
2019-02-07T13:56:30.428Z,10.02
2019-02-07T13:59:22.425Z,10.62
2019-02-07T14:02:23.429Z,10.59
2019-02-07T14:05:02.159Z,10.44
2019-02-07T14:07:49.984Z,10.60
2019-02-07T14:10:34.852Z,10.47
2019-02-07T14:13:17.253Z,10.57
2019-02-07T14:16:05.068Z,10.72
2019-02-07T14:18:57.559Z,10.63
2019-02-07T14:21:45.693Z,10.26
2019-02-07T14:24:50.065Z,10.19
2019-02-07T14:27:41.693Z,10.15
2019-02-07T14:30:24.237Z,10.52
2019-02-07T14:33:12.017Z,10.29
2019-02-07T14:36:01.018Z,10.17
2019-02-07T14:38:48.463Z,10.40
2019-02-07T14:41:52.618Z,10.77
2019-02-07T14:44:44.310Z,10.85
2019-02-07T14:47:14.677Z,10.75
2019-02-07T14:49:44.986Z,10.86
2019-02-07T14:52:15.430Z,10.57
2019-02-07T14:54:45.695Z,10.88
2019-02-07T14:57:16.035Z,10.95
2019-02-07T14:59:46.299Z,11.10
2019-02-07T15:02:17.228Z,11.33
2019-02-07T15:04:47.512Z,10.91
2019-02-07T15:07:17.865Z,10.88
2019-02-07T15:09:48.169Z,10.75
2019-02-07T15:12:18.411Z,10.87
2019-02-07T15:14:48.797Z,11.04
2019-02-07T15:17:19.340Z,11.14
2019-02-07T15:19:49.735Z,11.20
2019-02-07T15:22:19.982Z,11.26
2019-02-07T15:24:50.319Z,11.08
2019-02-07T15:27:20.712Z,10.82
2019-02-07T15:29:51.021Z,10.88
2019-02-07T15:32:21.589Z,10.88
2019-02-07T15:34:53.946Z,11.02
2019-02-07T15:37:25.231Z,11.03
2019-02-07T15:39:56.526Z,10.93
2019-02-07T15:42:27.870Z,10.97
2019-02-07T15:44:58.925Z,10.99
2019-02-07T15:47:29.900Z,11.02
2019-02-07T15:50:01.185Z,10.99
2019-02-07T15:52:32.529Z,10.87
2019-02-07T15:55:03.501Z,10.78
2019-02-07T15:57:34.382Z,10.80
2019-02-07T16:00:17.470Z,10.84
2019-02-07T16:02:53.221Z,10.83
2019-02-07T16:05:24.249Z,10.81
2019-02-07T16:07:54.645Z,10.54
2019-02-07T16:10:25.217Z,10.53
2019-02-07T16:12:56.768Z,10.51
2019-02-07T16:15:27.828Z,10.26
2019-02-07T16:17:59.526Z,10.26
2019-02-07T16:20:30.806Z,10.12
2019-02-07T16:23:01.880Z,10.15
2019-02-07T16:25:33.157Z,10.01
2019-02-07T16:28:04.582Z,10.07
2019-02-07T16:30:35.294Z,10.17
2019-02-07T16:33:06.767Z,10.19
2019-02-07T16:35:38.341Z,10.17
2019-02-07T16:38:09.803Z,10.20
2019-02-07T16:40:40.950Z,9.89
2019-02-07T16:43:11.740Z,9.79
2019-02-07T16:45:43.104Z,9.28
2019-02-07T16:48:14.457Z,9.14
2019-02-07T16:50:45.612Z,9.25
2019-02-07T16:53:16.308Z,9.19
2019-02-07T16:55:47.467Z,9.41
2019-02-07T16:58:18.763Z,9.00
2019-02-07T17:00:49.962Z,9.28
2019-02-07T17:03:21.739Z,9.41
2019-02-07T17:05:52.475Z,8.94
2019-02-07T17:08:23.171Z,8.85
2019-02-07T17:10:55.053Z,9.10
2019-02-07T17:13:25.656Z,9.11
2019-02-07T17:15:56.847Z,9.06
2019-02-07T17:18:27.780Z,9.02
2019-02-07T17:20:58.693Z,9.34
2019-02-07T17:23:30.246Z,9.60
2019-02-07T17:26:01.276Z,9.40
2019-02-07T17:28:32.009Z,9.27
2019-02-07T17:31:02.937Z,8.70
2019-02-07T17:33:33.983Z,8.21
2019-02-07T17:36:05.025Z,8.25
2019-02-07T17:38:36.598Z,8.90
2019-02-07T17:41:07.917Z,9.24
2019-02-07T17:43:38.548Z,8.74
2019-02-07T17:46:09.836Z,8.46
2019-02-07T17:48:40.763Z,8.17
2019-02-07T17:51:22.605Z,8.04
2019-02-07T17:53:44.244Z,7.83
2019-02-07T17:56:15.183Z,7.82
2019-02-07T17:58:46.234Z,7.83
2019-02-07T18:01:17.647Z,7.81
2019-02-07T18:03:48.724Z,7.78
2019-02-07T18:06:20.012Z,7.53
2019-02-07T18:08:50.670Z,7.81
2019-02-07T18:11:21.808Z,8.20
2019-02-07T18:13:52.577Z,8.50
2019-02-07T18:16:23.732Z,8.35
2019-02-07T18:18:55.278Z,8.49
2019-02-07T18:21:34.000Z,8.28
2019-02-07T18:23:58.160Z,7.98
2019-02-07T18:26:29.413Z,8.28
2019-02-07T18:29:00.107Z,8.58
2019-02-07T18:31:30.548Z,8.73
2019-02-07T18:34:01.952Z,8.68
2019-02-07T18:36:32.256Z,8.48
2019-02-07T18:39:02.495Z,8.28
2019-02-07T18:41:33.276Z,8.34
2019-02-07T18:44:04.263Z,8.53
2019-02-07T18:46:35.378Z,8.66
2019-02-07T18:49:06.010Z,9.02
2019-02-07T18:51:45.275Z,9.16
2019-02-07T18:54:09.754Z,9.36
2019-02-07T18:56:41.076Z,9.39
2019-02-07T18:59:12.771Z,9.48
2019-02-07T19:01:44.082Z,9.56
2019-02-07T19:04:14.908Z,9.58
2019-02-07T19:06:46.193Z,9.62
2019-02-07T19:09:17.350Z,9.50
2019-02-07T19:11:48.315Z,9.59
2019-02-07T19:14:19.095Z,9.62
2019-02-07T19:16:50.328Z,9.62
2019-02-07T19:19:20.766Z,9.41
2019-02-07T19:21:57.183Z,9.17
2019-02-07T19:24:23.142Z,9.33
2019-02-07T19:26:53.617Z,9.24
2019-02-07T19:29:24.241Z,9.62
2019-02-07T19:31:54.503Z,9.73
2019-02-07T19:34:24.758Z,9.15
2019-02-07T19:36:55.063Z,9.41
2019-02-07T19:39:25.394Z,9.73
2019-02-07T19:41:55.666Z,9.82
2019-02-07T19:44:25.893Z,9.72
2019-02-07T19:46:56.213Z,9.74
2019-02-07T19:49:26.624Z,9.60
2019-02-07T19:52:07.733Z,9.72
2019-02-07T19:54:28.871Z,9.68
2019-02-07T19:56:59.148Z,9.70
2019-02-07T19:59:29.464Z,9.75
2019-02-07T20:01:59.720Z,9.58
2019-02-07T20:04:29.955Z,9.59
2019-02-07T20:07:00.298Z,9.63
2019-02-07T20:09:31.240Z,9.26
2019-02-07T20:12:01.518Z,9.41
2019-02-07T20:14:32.173Z,9.50
2019-02-07T20:17:02.447Z,9.37
2019-02-07T20:19:33.208Z,9.25
2019-02-07T20:22:03.625Z,9.10
2019-02-07T20:24:45.448Z,9.19
2019-02-07T20:27:06.784Z,9.40
2019-02-07T20:29:37.108Z,9.36
2019-02-07T20:32:07.376Z,9.21
2019-02-07T20:34:37.689Z,9.21
2019-02-07T20:37:07.939Z,9.25
2019-02-07T20:39:38.662Z,9.25
2019-02-07T20:42:08.924Z,9.24
2019-02-07T20:44:39.366Z,9.27
2019-02-07T20:47:09.772Z,9.35
2019-02-07T20:49:40.016Z,9.31
2019-02-07T20:52:10.419Z,9.04
2019-02-07T20:54:41.424Z,9.11
2019-02-07T20:57:11.707Z,8.89
2019-02-07T20:59:43.158Z,8.84
2019-02-07T21:02:13.444Z,8.90
2019-02-07T21:04:44.166Z,8.92
2019-02-07T21:07:14.456Z,9.08
2019-02-07T21:09:44.963Z,9.16
2019-02-07T21:12:15.272Z,9.15
2019-02-07T21:14:45.906Z,8.58
2019-02-07T21:17:16.209Z,8.27
2019-02-07T21:19:46.576Z,8.81
2019-02-07T21:22:17.003Z,9.03
2019-02-07T21:24:47.237Z,8.72
2019-02-07T21:27:17.505Z,8.68
2019-02-07T21:29:47.836Z,8.99
2019-02-07T21:32:18.123Z,9.14
2019-02-07T21:34:48.390Z,9.22
2019-02-07T21:37:18.705Z,9.25
2019-02-07T21:39:49.184Z,9.18
2019-02-07T21:42:19.514Z,8.87
2019-02-07T21:44:49.866Z,8.34
2019-02-07T21:47:20.133Z,8.07
2019-02-07T21:49:50.434Z,8.02
2019-02-07T21:52:20.720Z,8.31
2019-02-07T21:54:51.347Z,8.74
2019-02-07T21:57:21.730Z,9.02
2019-02-07T21:59:51.987Z,9.12
2019-02-07T22:02:22.297Z,9.16
2019-02-07T22:04:52.637Z,9.14
2019-02-07T22:07:22.945Z,9.10
2019-02-07T22:09:53.172Z,9.21
2019-02-07T22:12:23.520Z,9.19
2019-02-07T22:14:53.853Z,9.22
2019-02-07T22:17:24.160Z,9.14
2019-02-07T22:19:54.540Z,9.09
2019-02-07T22:22:26.031Z,9.08
2019-02-07T22:24:56.898Z,9.01
2019-02-07T22:27:27.204Z,8.90
2019-02-07T22:29:57.642Z,8.69
2019-02-07T22:32:27.936Z,8.82
2019-02-07T22:34:58.204Z,8.78
2019-02-07T22:37:28.483Z,8.60
2019-02-07T22:39:58.864Z,8.73
2019-02-07T22:42:29.109Z,8.73
2019-02-07T22:44:59.339Z,8.67
2019-02-07T22:47:29.635Z,8.66
2019-02-07T22:50:00.278Z,8.75
2019-02-07T22:52:30.551Z,8.78
2019-02-07T22:55:00.779Z,8.48
2019-02-07T22:57:31.078Z,8.59
2019-02-07T23:00:01.339Z,8.73
2019-02-07T23:02:31.764Z,8.87
2019-02-07T23:05:02.472Z,8.91
2019-02-07T23:07:32.747Z,8.81
2019-02-07T23:10:02.991Z,8.81
2019-02-07T23:12:33.289Z,8.69
2019-02-07T23:15:03.794Z,8.58
2019-02-07T23:17:34.055Z,8.67
2019-02-07T23:20:05.186Z,8.68
2019-02-07T23:22:36.157Z,8.72
2019-02-07T23:25:08.205Z,8.73
2019-02-07T23:27:39.599Z,8.71
2019-02-07T23:30:10.599Z,8.69
2019-02-07T23:32:40.906Z,8.65
2019-02-07T23:35:11.649Z,8.59
2019-02-07T23:37:41.909Z,8.62
2019-02-07T23:40:12.311Z,8.31
2019-02-07T23:42:43.105Z,8.15
2019-02-07T23:45:15.212Z,8.35
2019-02-07T23:47:45.918Z,8.42
2019-02-07T23:50:16.628Z,8.41
2019-02-07T23:52:46.903Z,8.65
2019-02-07T23:55:17.165Z,8.72
2019-02-07T23:57:47.527Z,8.67
